Time;durP1;ratioP1;P1;durP2;ratioP2;P2;SDS_P1;SDS_P2;PMS_P1;PMS_P2;Temp;Humidity;BMP_temperature;BMP_pressure;BME280_temperature;BME280_humidity;BME280_pressure;Samples;Min_cycle;Max_cycle;Signal;HPM_P1;HPM_P2
2020/03/16 00:02:00;;;;;;;8.6;6.4;;;;;;;;;;;;;
2020/03/16 00:04:25;;;;;;;9.7;6.1;;;;;;;;;;;;;
2020/03/16 00:06:50;;;;;;;9.2;6.2;;;;;;;;;;;;;
2020/03/16 00:09:15;;;;;;;9.7;6;;;;;;;;;;;;;
2020/03/16 00:11:40;;;;;;;9.8;6.4;;;;;;;;;;;;;
2020/03/16 00:14:05;;;;;;;10;6.6;;;;;;;;;;;;;
2020/03/16 00:16:31;;;;;;;9;6.2;;;;;;;;;;;;;
2020/03/16 00:18:56;;;;;;;10.5;6.4;;;;;;;;;;;;;
2020/03/16 00:21:21;;;;;;;9.3;6.3;;;;;;;;;;;;;
2020/03/16 00:23:46;;;;;;;9.9;6.4;;;;;;;;;;;;;
2020/03/16 00:26:11;;;;;;;13.1;6.9;;;;;;;;;;;;;
2020/03/16 00:28:36;;;;;;;9.6;6.8;;;;;;;;;;;;;
2020/03/16 00:31:01;;;;;;;9.8;7.3;;;;;;;;;;;;;
2020/03/16 00:33:26;;;;;;;10.3;6.6;;;;;;;;;;;;;
2020/03/16 00:35:52;;;;;;;9.3;6.4;;;;;;;;;;;;;
2020/03/16 00:38:17;;;;;;;10.7;6.7;;;;;;;;;;;;;
2020/03/16 00:40:42;;;;;;;11.3;7;;;;;;;;;;;;;
2020/03/16 00:43:23;;;;;;;8.5;6;;;;;;;;;;;;;
2020/03/16 00:45:32;;;;;;;10.2;6.4;;;;;;;;;;;;;
2020/03/16 00:47:57;;;;;;;9.5;5.8;;;;;;;;;;;;;
2020/03/16 00:50:22;;;;;;;8;5.1;;;;;;;;;;;;;
2020/03/16 00:52:47;;;;;;;8.9;5.4;;;;;;;;;;;;;
2020/03/16 00:55:12;;;;;;;7.7;4.9;;;;;;;;;;;;;
2020/03/16 00:57:37;;;;;;;8.2;4.8;;;;;;;;;;;;;
2020/03/16 01:00:02;;;;;;;7.6;5;;;;;;;;;;;;;
2020/03/16 01:02:27;;;;;;;8.2;5.1;;;;;;;;;;;;;
2020/03/16 01:04:53;;;;;;;7.3;4.8;;;;;;;;;;;;;
2020/03/16 01:07:18;;;;;;;8.5;5.5;;;;;;;;;;;;;
2020/03/16 01:09:43;;;;;;;7.4;5.2;;;;;;;;;;;;;
2020/03/16 01:12:08;;;;;;;7.3;4.7;;;;;;;;;;;;;
2020/03/16 01:14:33;;;;;;;9.2;5.2;;;;;;;;;;;;;
2020/03/16 01:16:58;;;;;;;9.9;6.1;;;;;;;;;;;;;
2020/03/16 01:19:23;;;;;;;7.1;5.1;;;;;;;;;;;;;
2020/03/16 01:21:49;;;;;;;8.3;5;;;;;;;;;;;;;
2020/03/16 01:24:14;;;;;;;9.1;5.6;;;;;;;;;;;;;
2020/03/16 01:26:39;;;;;;;7.9;5.5;;;;;;;;;;;;;
2020/03/16 01:29:04;;;;;;;8.5;6;;;;;;;;;;;;;
2020/03/16 01:31:29;;;;;;;8.9;5.8;;;;;;;;;;;;;
2020/03/16 01:33:54;;;;;;;9.1;5.5;;;;;;;;;;;;;
2020/03/16 01:36:19;;;;;;;8.3;6;;;;;;;;;;;;;
2020/03/16 01:38:44;;;;;;;8.8;5.3;;;;;;;;;;;;;
2020/03/16 01:41:10;;;;;;;8.3;5.7;;;;;;;;;;;;;
2020/03/16 01:43:35;;;;;;;7.3;5.7;;;;;;;;;;;;;
2020/03/16 01:46:00;;;;;;;7.7;5.4;;;;;;;;;;;;;
2020/03/16 01:48:25;;;;;;;8.7;6.1;;;;;;;;;;;;;
2020/03/16 01:50:50;;;;;;;8.4;5.2;;;;;;;;;;;;;
2020/03/16 01:53:15;;;;;;;8.7;5.3;;;;;;;;;;;;;
2020/03/16 01:55:41;;;;;;;8.8;5.7;;;;;;;;;;;;;
2020/03/16 01:58:06;;;;;;;8.6;5.2;;;;;;;;;;;;;
2020/03/16 02:00:31;;;;;;;6.8;5;;;;;;;;;;;;;
2020/03/16 02:02:56;;;;;;;8.3;5.5;;;;;;;;;;;;;
2020/03/16 02:05:21;;;;;;;7.9;5;;;;;;;;;;;;;
2020/03/16 02:07:46;;;;;;;6.7;4.7;;;;;;;;;;;;;
2020/03/16 02:10:12;;;;;;;7.2;4.7;;;;;;;;;;;;;
2020/03/16 02:12:37;;;;;;;10;5.7;;;;;;;;;;;;;
2020/03/16 02:15:02;;;;;;;8.3;5.3;;;;;;;;;;;;;
2020/03/16 02:17:27;;;;;;;9.4;5.4;;;;;;;;;;;;;
2020/03/16 02:19:52;;;;;;;7.6;4.9;;;;;;;;;;;;;
2020/03/16 02:22:17;;;;;;;7.9;5.1;;;;;;;;;;;;;
2020/03/16 02:24:42;;;;;;;8.1;5.3;;;;;;;;;;;;;
2020/03/16 02:27:07;;;;;;;6.2;4.4;;;;;;;;;;;;;
2020/03/16 02:29:32;;;;;;;7.4;4.7;;;;;;;;;;;;;
2020/03/16 02:32:08;;;;;;;6.2;4.5;;;;;;;;;;;;;
2020/03/16 02:34:26;;;;;;;7;4.6;;;;;;;;;;;;;
2020/03/16 02:36:48;;;;;;;8.4;4.7;;;;;;;;;;;;;
2020/03/16 02:39:13;;;;;;;7.5;4.6;;;;;;;;;;;;;
2020/03/16 02:41:38;;;;;;;7.9;4.9;;;;;;;;;;;;;
2020/03/16 02:44:03;;;;;;;7.2;4.7;;;;;;;;;;;;;
2020/03/16 02:46:28;;;;;;;6.9;4.6;;;;;;;;;;;;;
2020/03/16 02:48:53;;;;;;;7.1;4.2;;;;;;;;;;;;;
2020/03/16 02:51:18;;;;;;;6.7;4.5;;;;;;;;;;;;;
2020/03/16 02:53:44;;;;;;;7.8;4.7;;;;;;;;;;;;;
2020/03/16 02:56:09;;;;;;;6.5;4.8;;;;;;;;;;;;;
2020/03/16 02:58:34;;;;;;;7.7;5;;;;;;;;;;;;;
2020/03/16 03:00:59;;;;;;;7.3;5.4;;;;;;;;;;;;;
2020/03/16 03:03:24;;;;;;;6.6;4.6;;;;;;;;;;;;;
2020/03/16 03:05:49;;;;;;;7.7;4.9;;;;;;;;;;;;;
2020/03/16 03:08:14;;;;;;;7.5;4.7;;;;;;;;;;;;;
2020/03/16 03:10:39;;;;;;;7.6;5.2;;;;;;;;;;;;;
2020/03/16 03:13:04;;;;;;;6.9;5;;;;;;;;;;;;;
2020/03/16 03:15:29;;;;;;;7.4;5;;;;;;;;;;;;;
2020/03/16 03:17:54;;;;;;;6.8;5;;;;;;;;;;;;;
2020/03/16 03:20:19;;;;;;;7.7;5.3;;;;;;;;;;;;;
2020/03/16 03:22:45;;;;;;;6.9;4.9;;;;;;;;;;;;;
2020/03/16 03:25:10;;;;;;;6.7;4.9;;;;;;;;;;;;;
2020/03/16 03:27:35;;;;;;;6.9;5.2;;;;;;;;;;;;;
2020/03/16 03:30:00;;;;;;;7.3;4.9;;;;;;;;;;;;;
2020/03/16 03:32:25;;;;;;;7;5;;;;;;;;;;;;;
2020/03/16 03:34:50;;;;;;;7.6;5.2;;;;;;;;;;;;;
2020/03/16 03:37:15;;;;;;;8.1;5.3;;;;;;;;;;;;;
2020/03/16 03:39:40;;;;;;;8.7;5.5;;;;;;;;;;;;;
2020/03/16 03:42:05;;;;;;;7.9;5.6;;;;;;;;;;;;;
2020/03/16 03:44:31;;;;;;;8.1;5.3;;;;;;;;;;;;;
2020/03/16 03:46:56;;;;;;;8.2;5;;;;;;;;;;;;;
2020/03/16 03:49:21;;;;;;;7.1;5.1;;;;;;;;;;;;;
2020/03/16 03:51:46;;;;;;;7.2;5.2;;;;;;;;;;;;;
2020/03/16 03:54:11;;;;;;;8.2;5.1;;;;;;;;;;;;;
2020/03/16 03:56:36;;;;;;;7.6;5.2;;;;;;;;;;;;;
2020/03/16 03:59:01;;;;;;;6.9;4.9;;;;;;;;;;;;;
2020/03/16 04:04:53;;;;;;;8;5.2;;;;;;;4.39;84.67285;1002.639;;;;
2020/03/16 04:07:19;;;;;;;7.4;5.4;;;;;;;4.34;84.93359;1002.658;;;;
2020/03/16 04:09:43;;;;;;;7.7;5.2;;;;;;;4.31;85.20996;1002.726;;;;
2020/03/16 04:12:08;;;;;;;6.5;4.9;;;;;;;4.35;85.20605;1002.796;;;;
2020/03/16 04:14:33;;;;;;;6.8;4.7;;;;;;;4.4;85.08105;1002.778;;;;
2020/03/16 04:16:58;;;;;;;7.1;5;;;;;;;4.31;85.25488;1002.791;;;;
2020/03/16 04:19:23;;;;;;;6.8;4.9;;;;;;;4.28;85.3291;1002.834;;;;
2020/03/16 04:21:49;;;;;;;6.5;5;;;;;;;4.26;85.33496;1002.898;;;;
2020/03/16 04:24:14;;;;;;;7.3;5.4;;;;;;;4.22;85.38379;1002.974;;;;
2020/03/16 04:26:39;;;;;;;7.2;4.8;;;;;;;4.2;85.77441;1003.017;;;;
2020/03/16 04:29:04;;;;;;;8.2;5.4;;;;;;;4.12;86.47852;1003.005;;;;
2020/03/16 04:31:29;;;;;;;7.6;5.2;;;;;;;4.12;86.49121;1003.077;;;;
2020/03/16 04:33:54;;;;;;;7.1;5.1;;;;;;;3.97;86.86621;1003.145;;;;
2020/03/16 04:36:19;;;;;;;7.3;5.1;;;;;;;3.9;87.12207;1003.213;;;;
2020/03/16 04:38:44;;;;;;;7.7;4.9;;;;;;;3.99;87.00684;1003.2;;;;
2020/03/16 04:41:09;;;;;;;6.6;5;;;;;;;4.07;86.60645;1003.221;;;;
2020/03/16 04:43:34;;;;;;;8;5.3;;;;;;;4;86.5918;1003.328;;;;
2020/03/16 04:46:00;;;;;;;8.3;5.2;;;;;;;3.97;87.19531;1003.375;;;;
2020/03/16 04:48:25;;;;;;;11.1;5.5;;;;;;;3.98;87.27441;1003.39;;;;
2020/03/16 04:50:50;;;;;;;7.4;5.2;;;;;;;4.04;86.94727;1003.384;;;;
2020/03/16 04:53:15;;;;;;;6.6;5.1;;;;;;;4.06;86.61426;1003.366;;;;
2020/03/16 04:55:40;;;;;;;7.7;5.3;;;;;;;4.01;86.52637;1003.346;;;;
2020/03/16 04:58:05;;;;;;;8.4;5.4;;;;;;;4.02;86.55078;1003.349;;;;
2020/03/16 05:00:30;;;;;;;7.9;5.5;;;;;;;4.12;87.40332;1003.357;;;;
2020/03/16 05:02:55;;;;;;;7.7;5.1;;;;;;;4.04;86.73242;1003.418;;;;
2020/03/16 05:05:21;;;;;;;6.7;5;;;;;;;3.98;87.3418;1003.42;;;;
2020/03/16 05:07:46;;;;;;;6.5;4.9;;;;;;;3.78;88.15527;1003.497;;;;
2020/03/16 05:10:11;;;;;;;8.4;5.1;;;;;;;3.76;88.20996;1003.527;;;;
2020/03/16 05:12:36;;;;;;;8.7;5.1;;;;;;;3.78;87.59375;1003.578;;;;
2020/03/16 05:15:02;;;;;;;7.5;5.2;;;;;;;3.69;88.36426;1003.634;;;;
2020/03/16 05:17:27;;;;;;;8.1;5.3;;;;;;;3.56;89.2168;1003.649;;;;
2020/03/16 05:19:52;;;;;;;6.9;5.2;;;;;;;3.55;89.02148;1003.649;;;;
2020/03/16 05:22:17;;;;;;;7.3;5.2;;;;;;;3.64;88.33008;1003.665;;;;
2020/03/16 05:24:42;;;;;;;8.4;5.4;;;;;;;3.59;88.43359;1003.835;;;;
2020/03/16 05:27:11;;;;;;;7.4;5.8;;;;;;;3.63;89.55469;1003.828;;;;
2020/03/16 05:29:32;;;;;;;6.9;5.2;;;;;;;3.79;89.35449;1003.804;;;;
2020/03/16 05:31:58;;;;;;;7.6;5;;;;;;;3.91;88.47656;1003.809;;;;
2020/03/16 05:34:23;;;;;;;7.9;5;;;;;;;3.84;87.91113;1003.815;;;;
2020/03/16 05:36:48;;;;;;;7.4;5.1;;;;;;;3.85;88.01465;1003.886;;;;
2020/03/16 05:39:13;;;;;;;7.8;5.2;;;;;;;3.77;87.72754;1003.905;;;;
2020/03/16 05:41:38;;;;;;;7.9;4.7;;;;;;;3.86;87.61133;1003.898;;;;
2020/03/16 05:44:03;;;;;;;7.1;4.5;;;;;;;3.96;87.06543;1003.924;;;;
2020/03/16 05:46:28;;;;;;;7.1;4.9;;;;;;;3.98;86.66504;1004.01;;;;
2020/03/16 05:48:53;;;;;;;8.3;4.6;;;;;;;4.04;87.00293;1004.055;;;;
2020/03/16 05:51:19;;;;;;;6.6;4.6;;;;;;;4.17;86.75098;1004.067;;;;
2020/03/16 05:53:44;;;;;;;6.5;4.5;;;;;;;4.17;86.80762;1004.133;;;;
2020/03/16 05:56:09;;;;;;;6.3;4.5;;;;;;;4.25;85.8877;1004.193;;;;
2020/03/16 05:58:34;;;;;;;7;5;;;;;;;4.33;85.59766;1004.206;;;;
2020/03/16 06:00:59;;;;;;;7.8;5.2;;;;;;;4.26;85.69531;1004.233;;;;
2020/03/16 06:03:24;;;;;;;5.4;4.2;;;;;;;4.24;85.63574;1004.311;;;;
2020/03/16 06:05:49;;;;;;;6.3;4.6;;;;;;;4.08;86.38086;1004.338;;;;
2020/03/16 06:08:14;;;;;;;6.4;4.7;;;;;;;4.44;85.26855;1004.35;;;;
2020/03/16 06:10:40;;;;;;;6.3;4.4;;;;;;;4.62;84.35645;1004.378;;;;
2020/03/16 06:13:05;;;;;;;7.4;4.6;;;;;;;4.65;84.08008;1004.41;;;;
2020/03/16 06:15:30;;;;;;;6.7;4.5;;;;;;;4.77;83.90137;1004.426;;;;
2020/03/16 06:17:55;;;;;;;6.5;4.4;;;;;;;4.96;83.03418;1004.482;;;;
2020/03/16 06:20:20;;;;;;;7;4.6;;;;;;;4.98;82.82324;1004.555;;;;
2020/03/16 06:22:45;;;;;;;6.7;4.8;;;;;;;5;82.77148;1004.567;;;;
2020/03/16 06:25:10;;;;;;;6.8;4.6;;;;;;;5.15;82.54102;1004.652;;;;
2020/03/16 06:27:35;;;;;;;7;4.4;;;;;;;5.23;81.91113;1004.69;;;;
2020/03/16 06:30:00;;;;;;;6.2;4.4;;;;;;;5.2;82.41406;1004.75;;;;
2020/03/16 06:32:25;;;;;;;7;4.3;;;;;;;5.48;81.55176;1004.771;;;;
2020/03/16 06:34:50;;;;;;;6.7;4.1;;;;;;;5.58;81.19531;1004.846;;;;
2020/03/16 06:37:15;;;;;;;6.5;4.4;;;;;;;5.59;81.06348;1004.863;;;;
2020/03/16 06:39:40;;;;;;;7.3;4.4;;;;;;;5.64;81.34473;1004.875;;;;
2020/03/16 06:42:06;;;;;;;6.5;4.4;;;;;;;5.88;80.56348;1004.943;;;;
2020/03/16 06:44:31;;;;;;;6.4;4.6;;;;;;;6.04;79.70996;1004.987;;;;
2020/03/16 06:46:56;;;;;;;8.4;4.5;;;;;;;6.9;77.11035;1004.975;;;;
2020/03/16 06:49:21;;;;;;;5.7;3.8;;;;;;;8.13;72.38086;1005.013;;;;
2020/03/16 06:51:46;;;;;;;5.4;3.7;;;;;;;8.96;69.48633;1005.066;;;;
2020/03/16 06:54:11;;;;;;;6.1;4;;;;;;;8.99;69.99219;1005.002;;;;
2020/03/16 06:56:36;;;;;;;7.6;4.3;;;;;;;9.56;67.20605;1005.077;;;;
2020/03/16 06:59:01;;;;;;;6.9;3.8;;;;;;;9.77;66.83984;1005.161;;;;
2020/03/16 07:01:26;;;;;;;8.3;4;;;;;;;9.88;65.09668;1005.242;;;;
2020/03/16 07:03:51;;;;;;;8.7;4.1;;;;;;;10.88;63.18555;1005.347;;;;
2020/03/16 07:06:17;;;;;;;7.7;3.8;;;;;;;12.68;58.43164;1005.38;;;;
2020/03/16 07:08:42;;;;;;;10.1;4;;;;;;;13.64;53.38281;1005.294;;;;
2020/03/16 07:11:07;;;;;;;5.5;3.8;;;;;;;15.23;49.16797;1005.21;;;;
2020/03/16 07:13:32;;;;;;;6.8;4;;;;;;;14.33;51.70117;1005.343;;;;
2020/03/16 07:15:57;;;;;;;5;3.4;;;;;;;14.68;51.24609;1005.375;;;;
2020/03/16 07:18:22;;;;;;;7.8;4.1;;;;;;;14.94;49.04492;1005.511;;;;
2020/03/16 07:20:47;;;;;;;6.7;3.6;;;;;;;15.19;48.64355;1005.698;;;;
2020/03/16 07:23:12;;;;;;;7.4;3.7;;;;;;;15.22;48.4043;1005.763;;;;
2020/03/16 07:25:37;;;;;;;7.8;3.8;;;;;;;16.26;46.11914;1005.719;;;;
2020/03/16 07:28:03;;;;;;;8.7;4;;;;;;;15.26;47.72559;1005.747;;;;
2020/03/16 07:30:27;;;;;;;7.5;4.2;;;;;;;15.56;48.23438;1005.728;;;;
2020/03/16 07:32:53;;;;;;;6.5;4.4;;;;;;;17.11;43.83789;1005.755;;;;
2020/03/16 07:35:18;;;;;;;6.1;3.6;;;;;;;17.75;41.94629;1005.875;;;;
2020/03/16 07:37:43;;;;;;;5.5;3.9;;;;;;;17.33;43.24316;1005.845;;;;
2020/03/16 07:40:08;;;;;;;7.5;4.2;;;;;;;15.64;47.10742;1005.906;;;;
2020/03/16 07:42:33;;;;;;;6.9;4.3;;;;;;;16.67;44.14063;1005.85;;;;
2020/03/16 07:44:58;;;;;;;6.7;3.6;;;;;;;15.1;48.09082;1005.87;;;;
2020/03/16 07:47:23;;;;;;;5.8;3.8;;;;;;;16.2;45.68359;1005.88;;;;
2020/03/16 07:49:48;;;;;;;8.1;4.3;;;;;;;18.15;41.51758;1005.9;;;;
2020/03/16 07:52:14;;;;;;;5.8;3.8;;;;;;;17.45;42.06934;1005.896;;;;
2020/03/16 07:54:39;;;;;;;7.8;4.3;;;;;;;17.61;41.51465;1005.978;;;;
2020/03/16 07:57:04;;;;;;;5.6;3.9;;;;;;;17.63;42.05078;1006.009;;;;
2020/03/16 07:59:29;;;;;;;8;4.4;;;;;;;17.8;41.39258;1006.037;;;;
2020/03/16 08:01:54;;;;;;;7.9;4.2;;;;;;;18.13;40.76953;1006.065;;;;
2020/03/16 08:04:19;;;;;;;7;4.2;;;;;;;19.15;38.31934;1006.068;;;;
2020/03/16 08:06:44;;;;;;;9;4.4;;;;;;;18.7;38.92285;1006.078;;;;
2020/03/16 08:09:10;;;;;;;7.4;4.2;;;;;;;19.7;37.64258;1006.063;;;;
2020/03/16 08:11:34;;;;;;;6.7;4;;;;;;;19.85;37.80762;1006.137;;;;
2020/03/16 08:14:00;;;;;;;7.8;4.5;;;;;;;19.62;37.625;1006.17;;;;
2020/03/16 08:16:25;;;;;;;8.7;4.7;;;;;;;19.32;38.11328;1006.155;;;;
2020/03/16 08:18:50;;;;;;;6.8;4.3;;;;;;;20.05;36.99512;1006.186;;;;
2020/03/16 08:21:15;;;;;;;8.5;4.3;;;;;;;20.18;36.96973;1006.226;;;;
2020/03/16 08:23:40;;;;;;;6.3;4.4;;;;;;;21.11;35.05371;1006.141;;;;
2020/03/16 08:26:05;;;;;;;7.3;4.2;;;;;;;21.39;34.58301;1006.096;;;;
2020/03/16 08:28:30;;;;;;;6.3;4.2;;;;;;;20.59;35.97363;1006.192;;;;
2020/03/16 08:30:55;;;;;;;6.3;4.4;;;;;;;20.38;35.97949;1006.184;;;;
2020/03/16 08:33:22;;;;;;;7.5;4.3;;;;;;;20.23;36.16602;1006.233;;;;
2020/03/16 08:35:51;;;;;;;8.3;4.3;;;;;;;20.99;35.54883;1006.224;;;;
2020/03/16 08:38:14;;;;;;;6.2;4.1;;;;;;;21.01;34.83496;1006.215;;;;
2020/03/16 08:40:39;;;;;;;7;4.2;;;;;;;21.29;34.21191;1006.21;;;;
2020/03/16 08:43:04;;;;;;;7.7;4;;;;;;;22.61;32.63086;1006.207;;;;
2020/03/16 08:45:30;;;;;;;6.3;4.1;;;;;;;21.48;33.91016;1006.195;;;;
2020/03/16 08:47:55;;;;;;;7.3;4.5;;;;;;;23.35;31.55371;1006.268;;;;
2020/03/16 08:50:21;;;;;;;6.2;3.6;;;;;;;21.94;32.89941;1006.256;;;;
2020/03/16 08:52:46;;;;;;;6.8;4.1;;;;;;;22.36;32.98828;1006.243;;;;
2020/03/16 08:55:11;;;;;;;6.8;4.1;;;;;;;21.96;32.94824;1006.278;;;;
2020/03/16 08:57:36;;;;;;;7.1;3.9;;;;;;;21.9;33.08398;1006.266;;;;
2020/03/16 09:00:01;;;;;;;5.4;3.6;;;;;;;21.73;34.01074;1006.259;;;;
2020/03/16 09:02:26;;;;;;;6.7;4.5;;;;;;;21.4;33.79785;1006.209;;;;
2020/03/16 09:04:51;;;;;;;6.3;3.6;;;;;;;21.81;33.46582;1006.236;;;;
2020/03/16 09:07:17;;;;;;;8;4.1;;;;;;;21.74;33.95313;1006.264;;;;
2020/03/16 09:09:44;;;;;;;6.4;3.8;;;;;;;23.81;30.77246;1006.326;;;;
2020/03/16 09:12:08;;;;;;;5.8;4.2;;;;;;;22.64;31.84473;1006.313;;;;
2020/03/16 09:14:33;;;;;;;5.4;3.8;;;;;;;21.96;32.87695;1006.357;;;;
2020/03/16 09:16:59;;;;;;;6.8;3.7;;;;;;;21.76;33.40332;1006.375;;;;
2020/03/16 09:19:24;;;;;;;6;3.9;;;;;;;22.82;32.37598;1006.329;;;;
2020/03/16 09:21:49;;;;;;;7;3.9;;;;;;;21.39;34.24316;1006.34;;;;
2020/03/16 09:24:14;;;;;;;7.8;4.1;;;;;;;21.39;34.50098;1006.348;;;;
2020/03/16 09:26:45;;;;;;;5.7;3.8;;;;;;;22.17;32.91602;1006.413;;;;
2020/03/16 09:29:05;;;;;;;5.6;3.9;;;;;;;22.97;32.32813;1006.418;;;;
2020/03/16 09:31:30;;;;;;;5.4;3.6;;;;;;;21.97;33.07715;1006.432;;;;
2020/03/16 09:33:55;;;;;;;4.9;3.8;;;;;;;22.87;32.6377;1006.448;;;;
2020/03/16 09:36:20;;;;;;;7.1;4.1;;;;;;;23.09;31.88867;1006.465;;;;
2020/03/16 09:38:50;;;;;;;4.9;3.5;;;;;;;23.15;31.92871;1006.527;;;;
2020/03/16 09:41:11;;;;;;;6.1;3.6;;;;;;;24.45;30.4502;1006.557;;;;
2020/03/16 09:43:36;;;;;;;5.3;3.7;;;;;;;24.48;30.29883;1006.596;;;;
2020/03/16 09:46:02;;;;;;;6.3;4;;;;;;;24.37;30.32715;1006.589;;;;
2020/03/16 09:48:27;;;;;;;6;3.6;;;;;;;23.77;31.27637;1006.51;;;;
2020/03/16 09:50:57;;;;;;;5.5;3.6;;;;;;;21.99;33.61914;1006.531;;;;
2020/03/16 09:53:20;;;;;;;7.7;3.7;;;;;;;21.52;34.95801;1006.544;;;;
2020/03/16 09:55:43;;;;;;;6.5;3.4;;;;;;;21.67;34.61719;1006.558;;;;
2020/03/16 09:58:08;;;;;;;6;3.3;;;;;;;21.75;35.24512;1006.565;;;;
2020/03/16 10:00:33;;;;;;;6;3.4;;;;;;;22.37;33.77734;1006.553;;;;
2020/03/16 10:02:58;;;;;;;5.9;3.5;;;;;;;21.76;35.01172;1006.566;;;;
2020/03/16 10:05:23;;;;;;;5.8;3.3;;;;;;;21.52;35.5791;1006.57;;;;
2020/03/16 10:07:48;;;;;;;6.9;3.5;;;;;;;21.54;35.07617;1006.516;;;;
2020/03/16 10:10:13;;;;;;;6.4;3.6;;;;;;;21.5;35.98828;1006.576;;;;
2020/03/16 10:12:38;;;;;;;5.4;3.4;;;;;;;22.19;34.43359;1006.616;;;;
2020/03/16 10:15:03;;;;;;;4.9;3.3;;;;;;;21.88;33.87012;1006.607;;;;
2020/03/16 10:17:29;;;;;;;5;3.1;;;;;;;21.1;34.8418;1006.595;;;;
2020/03/16 10:19:54;;;;;;;5.3;3.3;;;;;;;19.99;36.80176;1006.625;;;;
2020/03/16 10:22:19;;;;;;;5.3;3.2;;;;;;;20.18;37.53125;1006.649;;;;
2020/03/16 10:24:44;;;;;;;6.1;3.5;;;;;;;20.07;37.41699;1006.657;;;;
2020/03/16 10:27:09;;;;;;;4.8;3.2;;;;;;;20.96;35.6875;1006.546;;;;
2020/03/16 10:29:34;;;;;;;6.7;3.6;;;;;;;20.43;36.16016;1006.646;;;;
2020/03/16 10:31:59;;;;;;;5.2;3.2;;;;;;;21.42;34.72656;1006.542;;;;
2020/03/16 10:34:25;;;;;;;5.6;3.5;;;;;;;21.82;35.00488;1006.563;;;;
2020/03/16 10:36:51;;;;;;;5.5;3.5;;;;;;;21.27;35.18457;1006.516;;;;
2020/03/16 10:39:15;;;;;;;5.3;3.5;;;;;;;21.31;34.7998;1006.478;;;;
2020/03/16 10:41:41;;;;;;;5.2;3.3;;;;;;;21.19;34.62598;1006.521;;;;
2020/03/16 10:44:06;;;;;;;5;3.2;;;;;;;21.73;33.7998;1006.484;;;;
2020/03/16 10:46:31;;;;;;;5.8;3.1;;;;;;;20.76;35.9873;1006.495;;;;
2020/03/16 10:48:56;;;;;;;3.9;3;;;;;;;21.61;34.27148;1006.462;;;;
2020/03/16 10:51:21;;;;;;;5.6;3;;;;;;;22.56;33.30957;1006.487;;;;
2020/03/16 10:53:46;;;;;;;4.5;2.7;;;;;;;21.66;33.06641;1006.461;;;;
2020/03/16 10:56:11;;;;;;;5.5;3;;;;;;;21.89;33.37695;1006.459;;;;
2020/03/16 10:58:39;;;;;;;5.1;2.5;;;;;;;21.74;33.04883;1006.42;;;;
2020/03/16 11:01:02;;;;;;;3.5;2.3;;;;;;;21.16;33.25098;1006.444;;;;
2020/03/16 11:03:27;;;;;;;3.9;2.4;;;;;;;20.34;34.4541;1006.453;;;;
2020/03/16 11:05:52;;;;;;;3.7;2.3;;;;;;;19.76;34.20996;1006.434;;;;
2020/03/16 11:08:17;;;;;;;3.4;2;;;;;;;19.6;34.81836;1006.366;;;;
2020/03/16 11:10:42;;;;;;;3.7;2;;;;;;;19.4;35.56152;1006.351;;;;
2020/03/16 11:13:07;;;;;;;3.3;1.9;;;;;;;19.36;35.80371;1006.331;;;;
2020/03/16 11:15:32;;;;;;;5.3;2.6;;;;;;;19.21;36.1416;1006.337;;;;
2020/03/16 11:17:57;;;;;;;4.6;2.3;;;;;;;19.23;37.03027;1006.369;;;;
2020/03/16 11:20:22;;;;;;;3.6;2.2;;;;;;;19.19;36.7002;1006.423;;;;
2020/03/16 11:22:47;;;;;;;4.3;2.2;;;;;;;19.24;37.10156;1006.405;;;;
2020/03/16 11:25:12;;;;;;;4.1;2.5;;;;;;;19.65;36.59863;1006.386;;;;
2020/03/16 11:27:37;;;;;;;3.8;2.1;;;;;;;19.47;37.06348;1006.359;;;;
2020/03/16 11:30:02;;;;;;;3.1;2.1;;;;;;;19.14;36.27637;1006.428;;;;
2020/03/16 11:32:28;;;;;;;3.6;1.7;;;;;;;19.14;34.99121;1006.383;;;;
2020/03/16 11:34:53;;;;;;;2.9;1.8;;;;;;;18.77;36.28027;1006.396;;;;
2020/03/16 11:37:18;;;;;;;4.6;2.1;;;;;;;19.11;35.35156;1006.357;;;;
2020/03/16 11:39:43;;;;;;;3.5;2.4;;;;;;;18.81;36.82031;1006.389;;;;
2020/03/16 11:42:08;;;;;;;2.9;1.8;;;;;;;19.09;35.48926;1006.338;;;;
2020/03/16 11:44:33;;;;;;;4.3;1.9;;;;;;;19.21;34.43652;1006.37;;;;
2020/03/16 11:46:58;;;;;;;4.2;2.1;;;;;;;19.12;34.56934;1006.325;;;;
2020/03/16 11:49:23;;;;;;;3.6;1.9;;;;;;;19.16;34.92383;1006.234;;;;
2020/03/16 11:51:49;;;;;;;2.9;1.9;;;;;;;19.25;35.00098;1006.292;;;;
2020/03/16 11:54:14;;;;;;;3.6;2;;;;;;;19.07;36.12988;1006.232;;;;
2020/03/16 11:56:39;;;;;;;2.4;1.9;;;;;;;19.31;35.33203;1006.258;;;;
2020/03/16 11:59:04;;;;;;;2.6;2;;;;;;;19.15;35.02734;1006.24;;;;
2020/03/16 12:01:29;;;;;;;3.4;2.1;;;;;;;19.24;35.50098;1006.236;;;;
2020/03/16 12:03:54;;;;;;;3.9;2.1;;;;;;;19.29;35.24805;1006.229;;;;
2020/03/16 12:06:19;;;;;;;2.8;1.7;;;;;;;19.39;35.4541;1006.195;;;;
2020/03/16 12:08:45;;;;;;;3;2;;;;;;;19.56;35.00195;1006.235;;;;
2020/03/16 12:11:11;;;;;;;2.8;1.8;;;;;;;19.58;34.88672;1006.154;;;;
2020/03/16 12:13:36;;;;;;;3.3;1.9;;;;;;;19.5;34.43555;1006.18;;;;
2020/03/16 12:16:01;;;;;;;3.1;1.9;;;;;;;19.64;35.43945;1006.177;;;;
2020/03/16 12:18:26;;;;;;;3;1.9;;;;;;;19.63;35.35742;1006.137;;;;
2020/03/16 12:20:51;;;;;;;2.6;1.8;;;;;;;19.51;35.24316;1006.073;;;;
2020/03/16 12:23:16;;;;;;;2.8;1.6;;;;;;;19.61;34.8418;1006.162;;;;
2020/03/16 12:25:41;;;;;;;2.8;1.8;;;;;;;19.33;35.08789;1006.089;;;;
2020/03/16 12:28:06;;;;;;;2.7;2;;;;;;;19.24;35.05762;1006.112;;;;
2020/03/16 12:30:31;;;;;;;2.7;1.8;;;;;;;19.38;34.69531;1006.175;;;;
2020/03/16 12:32:56;;;;;;;2.7;1.8;;;;;;;19.48;34.86621;1006.178;;;;
2020/03/16 12:35:21;;;;;;;3.1;1.7;;;;;;;19.41;35.25781;1006.205;;;;
2020/03/16 12:37:47;;;;;;;3.6;1.9;;;;;;;19.45;35.41309;1006.17;;;;
2020/03/16 12:40:12;;;;;;;3.5;1.7;;;;;;;19.39;35.43164;1006.192;;;;
2020/03/16 12:42:38;;;;;;;2.1;1.6;;;;;;;19.59;33.87012;1006.202;;;;
2020/03/16 12:45:02;;;;;;;2.6;1.6;;;;;;;19.73;32.85254;1006.148;;;;
2020/03/16 12:47:28;;;;;;;3.3;1.6;;;;;;;19.66;32.74121;1006.129;;;;
2020/03/16 12:49:53;;;;;;;2.1;1.6;;;;;;;19.67;32.97656;1006.082;;;;
2020/03/16 12:52:18;;;;;;;4;1.8;;;;;;;19.37;33.08203;1006.158;;;;
2020/03/16 12:54:43;;;;;;;3.5;1.6;;;;;;;19.49;32.90527;1006.129;;;;
2020/03/16 12:57:08;;;;;;;2.5;1.8;;;;;;;19.55;33.00195;1006.169;;;;
2020/03/16 12:59:33;;;;;;;2.4;1.6;;;;;;;19.78;32.66895;1006.111;;;;
2020/03/16 13:01:58;;;;;;;2.6;1.5;;;;;;;20.03;32.0791;1006.179;;;;
2020/03/16 13:04:24;;;;;;;3.1;1.8;;;;;;;19.96;32.34277;1006.213;;;;
2020/03/16 13:06:49;;;;;;;4.2;2.1;;;;;;;20.07;32.64355;1006.133;;;;
2020/03/16 13:09:14;;;;;;;2.2;1.5;;;;;;;20.12;32.4834;1006.148;;;;
2020/03/16 13:11:39;;;;;;;2.4;1.5;;;;;;;20.19;31.87988;1006.084;;;;
2020/03/16 13:14:04;;;;;;;2.5;1.5;;;;;;;20.31;31.58301;1006.23;;;;
2020/03/16 13:16:29;;;;;;;2.5;1.6;;;;;;;19.81;32.37891;1006.147;;;;
2020/03/16 13:18:54;;;;;;;3.4;1.6;;;;;;;19.86;31.99707;1006.126;;;;
2020/03/16 13:21:19;;;;;;;2.7;1.8;;;;;;;19.62;32.21191;1006.19;;;;
2020/03/16 13:23:44;;;;;;;3.5;2.1;;;;;;;19.84;32.50977;1006.208;;;;
2020/03/16 13:26:09;;;;;;;1.9;1.6;;;;;;;19.71;32.31348;1006.14;;;;
2020/03/16 13:28:35;;;;;;;2.9;1.8;;;;;;;19.53;32.04297;1006.199;;;;
2020/03/16 13:31:00;;;;;;;3.5;1.8;;;;;;;19.71;32.95605;1006.152;;;;
2020/03/16 13:33:25;;;;;;;2.5;1.9;;;;;;;19.84;32.79004;1006.147;;;;
2020/03/16 13:35:50;;;;;;;4.4;2;;;;;;;19.87;32.76855;1006.097;;;;
2020/03/16 13:38:17;;;;;;;2.6;1.8;;;;;;;19.7;33.03613;1006.148;;;;
2020/03/16 13:40:40;;;;;;;3.1;1.8;;;;;;;19.73;32.95703;1006.198;;;;
2020/03/16 13:43:05;;;;;;;3.6;1.8;;;;;;;19.64;33.35938;1006.169;;;;
2020/03/16 13:45:30;;;;;;;2.1;1.7;;;;;;;19.64;33.14844;1006.125;;;;
2020/03/16 13:47:55;;;;;;;2;1.6;;;;;;;19.73;33.6709;1006.238;;;;
2020/03/16 13:50:20;;;;;;;3.4;1.8;;;;;;;19.78;33.65039;1006.242;;;;
2020/03/16 13:52:45;;;;;;;2.7;1.9;;;;;;;19.94;33.09082;1006.271;;;;
2020/03/16 13:55:10;;;;;;;4.5;2.1;;;;;;;19.93;33.08887;1006.264;;;;
2020/03/16 13:57:36;;;;;;;6.5;2.1;;;;;;;19.79;33.79199;1006.301;;;;
2020/03/16 14:00:01;;;;;;;2.3;1.8;;;;;;;19.67;33.08105;1006.272;;;;
2020/03/16 14:02:26;;;;;;;2.7;1.6;;;;;;;19.56;33.19043;1006.3;;;;
2020/03/16 14:04:51;;;;;;;2.9;1.8;;;;;;;19.42;33.28418;1006.328;;;;
2020/03/16 14:07:16;;;;;;;4.5;2;;;;;;;19.47;33.39355;1006.315;;;;
2020/03/16 14:09:41;;;;;;;2.5;1.9;;;;;;;19.64;33.58105;1006.355;;;;
2020/03/16 14:12:06;;;;;;;2.5;1.8;;;;;;;19.73;33.06152;1006.285;;;;
2020/03/16 14:14:31;;;;;;;4.5;1.9;;;;;;;19.69;33.3291;1006.331;;;;
2020/03/16 14:16:56;;;;;;;2.5;1.7;;;;;;;19.67;32.66016;1006.308;;;;
2020/03/16 14:19:21;;;;;;;2.5;1.9;;;;;;;19.85;33.28223;1006.366;;;;
2020/03/16 14:21:46;;;;;;;2.6;1.7;;;;;;;19.84;32.8252;1006.311;;;;
2020/03/16 14:24:11;;;;;;;2.1;1.6;;;;;;;19.82;32.81152;1006.383;;;;
2020/03/16 14:26:36;;;;;;;4.6;2.2;;;;;;;19.87;33.50586;1006.334;;;;
2020/03/16 14:29:02;;;;;;;3.9;1.9;;;;;;;19.88;33.44727;1006.387;;;;
2020/03/16 14:31:27;;;;;;;3.1;1.8;;;;;;;19.71;33.51758;1006.371;;;;
2020/03/16 14:33:52;;;;;;;4.7;1.8;;;;;;;19.81;33.65332;1006.385;;;;
2020/03/16 14:36:17;;;;;;;2.4;1.9;;;;;;;19.76;32.65625;1006.354;;;;
2020/03/16 14:38:42;;;;;;;2;1.5;;;;;;;19.58;33.23926;1006.346;;;;
2020/03/16 14:41:07;;;;;;;3.3;1.7;;;;;;;19.63;33.06641;1006.382;;;;
2020/03/16 14:43:32;;;;;;;2.1;1.6;;;;;;;19.57;33.64648;1006.365;;;;
2020/03/16 14:45:57;;;;;;;3.2;1.6;;;;;;;19.65;33.06836;1006.38;;;;
2020/03/16 14:48:22;;;;;;;4.4;2;;;;;;;19.71;32.9209;1006.454;;;;
2020/03/16 14:50:47;;;;;;;3.6;1.8;;;;;;;19.78;32.29395;1006.457;;;;
2020/03/16 14:53:12;;;;;;;2.2;1.7;;;;;;;19.79;32.0957;1006.473;;;;
2020/03/16 14:55:37;;;;;;;4;1.8;;;;;;;19.8;31.99121;1006.505;;;;
2020/03/16 14:58:03;;;;;;;2.8;1.5;;;;;;;19.87;31.64551;1006.533;;;;
2020/03/16 15:00:28;;;;;;;3;1.6;;;;;;;19.97;31.47754;1006.554;;;;
2020/03/16 15:02:53;;;;;;;2.5;1.7;;;;;;;19.93;31.45117;1006.599;;;;
2020/03/16 15:05:18;;;;;;;2.5;1.7;;;;;;;19.84;32.03027;1006.61;;;;
2020/03/16 15:07:43;;;;;;;2.9;1.8;;;;;;;19.82;32.29785;1006.645;;;;
2020/03/16 15:10:08;;;;;;;3.3;1.6;;;;;;;19.62;31.94434;1006.72;;;;
2020/03/16 15:12:33;;;;;;;2.1;1.5;;;;;;;19.49;31.67773;1006.768;;;;
2020/03/16 15:14:58;;;;;;;3.6;1.5;;;;;;;19.56;32.13867;1006.793;;;;
2020/03/16 15:17:24;;;;;;;2.1;1.5;;;;;;;19.55;32.0791;1006.81;;;;
2020/03/16 15:19:48;;;;;;;2.9;1.6;;;;;;;19.52;32.28711;1006.768;;;;
2020/03/16 15:22:14;;;;;;;4.2;2;;;;;;;19.62;31.93164;1006.829;;;;
2020/03/16 15:24:39;;;;;;;2.9;1.9;;;;;;;19.48;32.4248;1006.841;;;;
2020/03/16 15:27:04;;;;;;;5.4;1.7;;;;;;;19.36;32.49707;1006.889;;;;
2020/03/16 15:29:29;;;;;;;2.4;1.6;;;;;;;19.56;31.93945;1006.917;;;;
2020/03/16 15:31:54;;;;;;;2.8;1.7;;;;;;;19.56;32.53516;1006.93;;;;